sensor_id;sensor_type;location;lat;lon;timestamp;temperature;humidity
61807;DHT22;47726;52.766;6.606;2023-04-06T00:01:38;5.30;90.70
61807;DHT22;47726;52.766;6.606;2023-04-06T00:04:04;5.30;90.70
61807;DHT22;47726;52.766;6.606;2023-04-06T00:06:30;5.30;91.00
61807;DHT22;47726;52.766;6.606;2023-04-06T00:08:55;5.20;90.90
61807;DHT22;47726;52.766;6.606;2023-04-06T00:11:21;5.30;90.90
61807;DHT22;47726;52.766;6.606;2023-04-06T00:13:47;5.20;91.10
61807;DHT22;47726;52.766;6.606;2023-04-06T00:16:13;5.20;91.20
61807;DHT22;47726;52.766;6.606;2023-04-06T00:18:39;5.20;91.30
61807;DHT22;47726;52.766;6.606;2023-04-06T00:21:04;5.20;91.30
61807;DHT22;47726;52.766;6.606;2023-04-06T00:23:30;5.10;91.30
61807;DHT22;47726;52.766;6.606;2023-04-06T00:25:56;5.10;91.30
61807;DHT22;47726;52.766;6.606;2023-04-06T00:28:21;5.10;91.40
61807;DHT22;47726;52.766;6.606;2023-04-06T00:30:51;5.10;91.50
61807;DHT22;47726;52.766;6.606;2023-04-06T00:33:18;5.00;91.60
61807;DHT22;47726;52.766;6.606;2023-04-06T00:35:44;5.00;91.60
61807;DHT22;47726;52.766;6.606;2023-04-06T00:38:10;5.00;91.80
61807;DHT22;47726;52.766;6.606;2023-04-06T00:40:36;5.00;91.90
61807;DHT22;47726;52.766;6.606;2023-04-06T00:43:01;5.00;92.00
61807;DHT22;47726;52.766;6.606;2023-04-06T00:45:28;4.90;92.10
61807;DHT22;47726;52.766;6.606;2023-04-06T00:47:53;4.90;92.10
61807;DHT22;47726;52.766;6.606;2023-04-06T00:50:19;4.90;92.30
61807;DHT22;47726;52.766;6.606;2023-04-06T00:52:45;4.80;92.50
61807;DHT22;47726;52.766;6.606;2023-04-06T00:55:10;4.80;92.50
61807;DHT22;47726;52.766;6.606;2023-04-06T00:57:36;4.80;92.70
61807;DHT22;47726;52.766;6.606;2023-04-06T01:00:02;4.70;92.90
61807;DHT22;47726;52.766;6.606;2023-04-06T01:02:28;4.70;93.00
61807;DHT22;47726;52.766;6.606;2023-04-06T01:04:54;4.60;93.30
61807;DHT22;47726;52.766;6.606;2023-04-06T01:07:20;4.60;93.50
61807;DHT22;47726;52.766;6.606;2023-04-06T01:09:45;4.50;93.90
61807;DHT22;47726;52.766;6.606;2023-04-06T01:12:11;4.50;94.20
61807;DHT22;47726;52.766;6.606;2023-04-06T01:14:36;4.40;94.50
61807;DHT22;47726;52.766;6.606;2023-04-06T01:17:02;4.40;94.70
61807;DHT22;47726;52.766;6.606;2023-04-06T01:19:28;4.30;95.00
61807;DHT22;47726;52.766;6.606;2023-04-06T01:21:54;4.30;95.20
61807;DHT22;47726;52.766;6.606;2023-04-06T01:24:20;4.20;95.80
61807;DHT22;47726;52.766;6.606;2023-04-06T01:26:46;4.20;96.20
61807;DHT22;47726;52.766;6.606;2023-04-06T01:29:11;4.20;96.50
61807;DHT22;47726;52.766;6.606;2023-04-06T01:31:38;4.10;96.70
61807;DHT22;47726;52.766;6.606;2023-04-06T01:34:03;4.10;96.80
61807;DHT22;47726;52.766;6.606;2023-04-06T01:36:30;4.10;97.10
61807;DHT22;47726;52.766;6.606;2023-04-06T01:38:56;4.10;97.40
61807;DHT22;47726;52.766;6.606;2023-04-06T01:41:21;4.10;97.20
61807;DHT22;47726;52.766;6.606;2023-04-06T01:43:47;4.00;97.10
61807;DHT22;47726;52.766;6.606;2023-04-06T01:46:13;4.00;97.10
61807;DHT22;47726;52.766;6.606;2023-04-06T01:48:39;4.00;97.00
61807;DHT22;47726;52.766;6.606;2023-04-06T01:51:05;4.00;97.10
61807;DHT22;47726;52.766;6.606;2023-04-06T01:53:30;4.00;97.20
61807;DHT22;47726;52.766;6.606;2023-04-06T01:55:56;4.00;97.40
61807;DHT22;47726;52.766;6.606;2023-04-06T01:58:21;3.90;97.30
61807;DHT22;47726;52.766;6.606;2023-04-06T02:00:47;3.90;97.50
61807;DHT22;47726;52.766;6.606;2023-04-06T02:03:12;3.90;97.60
61807;DHT22;47726;52.766;6.606;2023-04-06T02:05:40;3.80;97.70
61807;DHT22;47726;52.766;6.606;2023-04-06T02:08:06;3.90;97.90
61807;DHT22;47726;52.766;6.606;2023-04-06T02:10:35;3.80;97.90
61807;DHT22;47726;52.766;6.606;2023-04-06T02:13:01;3.80;98.10
61807;DHT22;47726;52.766;6.606;2023-04-06T02:15:26;3.80;98.20
61807;DHT22;47726;52.766;6.606;2023-04-06T02:17:53;3.80;98.20
61807;DHT22;47726;52.766;6.606;2023-04-06T02:20:18;3.70;98.40
61807;DHT22;47726;52.766;6.606;2023-04-06T02:22:44;3.70;98.30
61807;DHT22;47726;52.766;6.606;2023-04-06T02:25:09;3.70;98.50
61807;DHT22;47726;52.766;6.606;2023-04-06T02:27:35;3.60;98.80
61807;DHT22;47726;52.766;6.606;2023-04-06T02:30:02;3.60;98.70
61807;DHT22;47726;52.766;6.606;2023-04-06T02:32:28;3.60;99.00
61807;DHT22;47726;52.766;6.606;2023-04-06T02:34:53;3.60;99.00
61807;DHT22;47726;52.766;6.606;2023-04-06T02:37:19;3.60;99.10
61807;DHT22;47726;52.766;6.606;2023-04-06T02:39:45;3.60;99.30
61807;DHT22;47726;52.766;6.606;2023-04-06T02:42:10;3.50;99.40
61807;DHT22;47726;52.766;6.606;2023-04-06T02:44:36;3.50;99.30
61807;DHT22;47726;52.766;6.606;2023-04-06T02:47:01;3.50;99.20
61807;DHT22;47726;52.766;6.606;2023-04-06T02:49:27;3.50;99.30
61807;DHT22;47726;52.766;6.606;2023-04-06T02:51:53;3.50;99.40
61807;DHT22;47726;52.766;6.606;2023-04-06T02:54:19;3.40;99.60
61807;DHT22;47726;52.766;6.606;2023-04-06T02:56:44;3.40;99.80
61807;DHT22;47726;52.766;6.606;2023-04-06T02:59:10;3.40;99.90
61807;DHT22;47726;52.766;6.606;2023-04-06T03:01:36;3.40;99.90
61807;DHT22;47726;52.766;6.606;2023-04-06T03:04:02;3.30;99.90
61807;DHT22;47726;52.766;6.606;2023-04-06T03:06:27;3.30;99.90
61807;DHT22;47726;52.766;6.606;2023-04-06T03:08:53;3.30;99.90
61807;DHT22;47726;52.766;6.606;2023-04-06T03:11:18;3.30;99.90
61807;DHT22;47726;52.766;6.606;2023-04-06T03:13:44;3.30;99.90
61807;DHT22;47726;52.766;6.606;2023-04-06T03:16:10;3.20;99.90
61807;DHT22;47726;52.766;6.606;2023-04-06T03:18:36;3.20;99.90
61807;DHT22;47726;52.766;6.606;2023-04-06T03:21:01;3.20;99.90
61807;DHT22;47726;52.766;6.606;2023-04-06T03:23:27;3.20;99.90
61807;DHT22;47726;52.766;6.606;2023-04-06T03:25:52;3.10;99.90
61807;DHT22;47726;52.766;6.606;2023-04-06T03:28:18;3.10;99.90
61807;DHT22;47726;52.766;6.606;2023-04-06T03:30:44;3.10;99.90
61807;DHT22;47726;52.766;6.606;2023-04-06T03:33:10;3.10;99.90
61807;DHT22;47726;52.766;6.606;2023-04-06T03:35:35;3.10;99.90
61807;DHT22;47726;52.766;6.606;2023-04-06T03:38:02;3.10;99.90
61807;DHT22;47726;52.766;6.606;2023-04-06T03:40:28;3.10;99.90
61807;DHT22;47726;52.766;6.606;2023-04-06T03:42:53;3.10;99.90
61807;DHT22;47726;52.766;6.606;2023-04-06T03:45:19;3.00;99.90
61807;DHT22;47726;52.766;6.606;2023-04-06T03:47:45;3.10;99.90
61807;DHT22;47726;52.766;6.606;2023-04-06T03:50:10;3.00;99.90
61807;DHT22;47726;52.766;6.606;2023-04-06T03:52:36;3.00;99.90
61807;DHT22;47726;52.766;6.606;2023-04-06T03:55:02;3.00;99.90
61807;DHT22;47726;52.766;6.606;2023-04-06T03:57:28;3.00;99.90
61807;DHT22;47726;52.766;6.606;2023-04-06T03:59:53;2.90;99.90
61807;DHT22;47726;52.766;6.606;2023-04-06T04:02:19;2.90;99.90
61807;DHT22;47726;52.766;6.606;2023-04-06T04:04:45;2.90;99.90
61807;DHT22;47726;52.766;6.606;2023-04-06T04:07:10;2.90;99.90
61807;DHT22;47726;52.766;6.606;2023-04-06T04:09:36;2.80;99.90
61807;DHT22;47726;52.766;6.606;2023-04-06T04:12:02;2.90;99.90
61807;DHT22;47726;52.766;6.606;2023-04-06T04:14:28;2.90;99.90
61807;DHT22;47726;52.766;6.606;2023-04-06T04:16:53;2.90;99.90
61807;DHT22;47726;52.766;6.606;2023-04-06T04:19:19;2.90;99.90
61807;DHT22;47726;52.766;6.606;2023-04-06T04:21:45;2.90;99.90
61807;DHT22;47726;52.766;6.606;2023-04-06T04:24:11;2.90;99.90
61807;DHT22;47726;52.766;6.606;2023-04-06T04:26:38;2.90;99.90
61807;DHT22;47726;52.766;6.606;2023-04-06T04:29:04;2.90;99.90
61807;DHT22;47726;52.766;6.606;2023-04-06T04:31:30;2.90;99.90
61807;DHT22;47726;52.766;6.606;2023-04-06T04:33:56;2.90;99.90
61807;DHT22;47726;52.766;6.606;2023-04-06T04:36:21;2.90;99.90
61807;DHT22;47726;52.766;6.606;2023-04-06T04:38:47;2.90;99.90
61807;DHT22;47726;52.766;6.606;2023-04-06T04:41:12;2.90;99.90
61807;DHT22;47726;52.766;6.606;2023-04-06T04:43:38;2.90;99.90
61807;DHT22;47726;52.766;6.606;2023-04-06T04:46:04;2.90;99.90
61807;DHT22;47726;52.766;6.606;2023-04-06T04:48:30;2.90;99.90
61807;DHT22;47726;52.766;6.606;2023-04-06T04:50:56;2.90;99.90
61807;DHT22;47726;52.766;6.606;2023-04-06T04:53:21;2.90;99.90
61807;DHT22;47726;52.766;6.606;2023-04-06T04:55:47;2.90;99.90
61807;DHT22;47726;52.766;6.606;2023-04-06T04:58:13;2.80;99.90
61807;DHT22;47726;52.766;6.606;2023-04-06T05:00:42;2.80;99.90
61807;DHT22;47726;52.766;6.606;2023-04-06T05:03:11;2.80;99.90
61807;DHT22;47726;52.766;6.606;2023-04-06T05:05:39;2.80;99.90
61807;DHT22;47726;52.766;6.606;2023-04-06T05:08:04;2.80;99.90
61807;DHT22;47726;52.766;6.606;2023-04-06T05:10:30;2.80;99.90
61807;DHT22;47726;52.766;6.606;2023-04-06T05:12:56;2.80;99.90
61807;DHT22;47726;52.766;6.606;2023-04-06T05:15:22;2.80;99.90
61807;DHT22;47726;52.766;6.606;2023-04-06T05:17:47;2.80;99.90
61807;DHT22;47726;52.766;6.606;2023-04-06T05:20:13;2.80;99.90
61807;DHT22;47726;52.766;6.606;2023-04-06T05:22:38;2.80;99.90
61807;DHT22;47726;52.766;6.606;2023-04-06T05:25:04;2.80;99.90
61807;DHT22;47726;52.766;6.606;2023-04-06T05:27:30;2.80;99.90
61807;DHT22;47726;52.766;6.606;2023-04-06T05:29:56;2.80;99.90
61807;DHT22;47726;52.766;6.606;2023-04-06T05:32:21;2.80;99.90
61807;DHT22;47726;52.766;6.606;2023-04-06T05:34:49;2.80;99.90
61807;DHT22;47726;52.766;6.606;2023-04-06T05:37:15;2.90;99.90
61807;DHT22;47726;52.766;6.606;2023-04-06T05:39:41;2.90;99.90
61807;DHT22;47726;52.766;6.606;2023-04-06T05:42:07;2.90;99.90
61807;DHT22;47726;52.766;6.606;2023-04-06T05:44:32;2.90;99.90
61807;DHT22;47726;52.766;6.606;2023-04-06T05:46:58;2.90;99.90
61807;DHT22;47726;52.766;6.606;2023-04-06T05:49:24;2.90;99.90
61807;DHT22;47726;52.766;6.606;2023-04-06T05:51:49;3.00;99.90
61807;DHT22;47726;52.766;6.606;2023-04-06T05:54:15;3.00;99.90
61807;DHT22;47726;52.766;6.606;2023-04-06T05:56:40;3.00;99.90
61807;DHT22;47726;52.766;6.606;2023-04-06T05:59:06;3.10;99.90
61807;DHT22;47726;52.766;6.606;2023-04-06T06:01:33;3.10;99.90
61807;DHT22;47726;52.766;6.606;2023-04-06T06:04:01;3.20;99.90
61807;DHT22;47726;52.766;6.606;2023-04-06T06:06:28;3.30;99.90
61807;DHT22;47726;52.766;6.606;2023-04-06T06:08:53;3.30;99.90
61807;DHT22;47726;52.766;6.606;2023-04-06T06:11:19;3.40;99.90
61807;DHT22;47726;52.766;6.606;2023-04-06T06:13:45;3.40;99.90
61807;DHT22;47726;52.766;6.606;2023-04-06T06:16:10;3.60;99.90
61807;DHT22;47726;52.766;6.606;2023-04-06T06:18:36;3.70;99.90
61807;DHT22;47726;52.766;6.606;2023-04-06T06:21:02;3.80;99.90
61807;DHT22;47726;52.766;6.606;2023-04-06T06:23:28;3.90;99.90
61807;DHT22;47726;52.766;6.606;2023-04-06T06:25:53;4.10;99.90
61807;DHT22;47726;52.766;6.606;2023-04-06T06:28:19;4.20;99.90
61807;DHT22;47726;52.766;6.606;2023-04-06T06:30:45;4.40;99.90
61807;DHT22;47726;52.766;6.606;2023-04-06T06:33:10;4.60;99.90
61807;DHT22;47726;52.766;6.606;2023-04-06T06:35:36;4.70;99.90
61807;DHT22;47726;52.766;6.606;2023-04-06T06:38:01;4.90;99.90
61807;DHT22;47726;52.766;6.606;2023-04-06T06:40:27;5.10;99.90
61807;DHT22;47726;52.766;6.606;2023-04-06T06:42:53;5.20;99.90
61807;DHT22;47726;52.766;6.606;2023-04-06T06:45:18;5.30;99.90
61807;DHT22;47726;52.766;6.606;2023-04-06T06:47:45;5.50;99.90
61807;DHT22;47726;52.766;6.606;2023-04-06T06:50:11;5.60;99.90
61807;DHT22;47726;52.766;6.606;2023-04-06T06:52:36;5.80;99.90
61807;DHT22;47726;52.766;6.606;2023-04-06T06:55:02;5.90;99.90
61807;DHT22;47726;52.766;6.606;2023-04-06T06:57:28;6.10;99.90
61807;DHT22;47726;52.766;6.606;2023-04-06T06:59:53;6.30;99.90
61807;DHT22;47726;52.766;6.606;2023-04-06T07:02:19;6.40;99.90
61807;DHT22;47726;52.766;6.606;2023-04-06T07:04:47;6.50;99.90
61807;DHT22;47726;52.766;6.606;2023-04-06T07:07:14;6.70;99.90
61807;DHT22;47726;52.766;6.606;2023-04-06T07:09:39;6.80;99.90
61807;DHT22;47726;52.766;6.606;2023-04-06T07:12:05;7.00;99.90
61807;DHT22;47726;52.766;6.606;2023-04-06T07:14:30;7.20;99.90
61807;DHT22;47726;52.766;6.606;2023-04-06T07:16:56;7.30;99.70
61807;DHT22;47726;52.766;6.606;2023-04-06T07:19:21;7.40;99.60
61807;DHT22;47726;52.766;6.606;2023-04-06T07:21:47;7.60;99.70
61807;DHT22;47726;52.766;6.606;2023-04-06T07:24:14;7.80;99.50
61807;DHT22;47726;52.766;6.606;2023-04-06T07:26:40;8.00;99.20
61807;DHT22;47726;52.766;6.606;2023-04-06T07:29:05;8.10;98.80
61807;DHT22;47726;52.766;6.606;2023-04-06T07:31:31;8.30;98.50
61807;DHT22;47726;52.766;6.606;2023-04-06T07:33:56;8.40;98.30
61807;DHT22;47726;52.766;6.606;2023-04-06T07:36:22;8.60;97.60
61807;DHT22;47726;52.766;6.606;2023-04-06T07:38:48;8.70;97.50
61807;DHT22;47726;52.766;6.606;2023-04-06T07:41:14;8.80;97.20
61807;DHT22;47726;52.766;6.606;2023-04-06T07:43:40;8.90;96.90
61807;DHT22;47726;52.766;6.606;2023-04-06T07:46:05;9.00;96.50
61807;DHT22;47726;52.766;6.606;2023-04-06T07:48:31;9.10;96.40
61807;DHT22;47726;52.766;6.606;2023-04-06T07:51:04;9.20;95.90
61807;DHT22;47726;52.766;6.606;2023-04-06T07:53:30;9.30;95.70
61807;DHT22;47726;52.766;6.606;2023-04-06T07:55:57;9.40;95.40
61807;DHT22;47726;52.766;6.606;2023-04-06T07:58:23;9.50;95.30
61807;DHT22;47726;52.766;6.606;2023-04-06T08:00:48;9.60;95.00
61807;DHT22;47726;52.766;6.606;2023-04-06T08:03:14;9.70;95.10
61807;DHT22;47726;52.766;6.606;2023-04-06T08:05:42;9.90;94.80
61807;DHT22;47726;52.766;6.606;2023-04-06T08:08:08;10.00;94.40
61807;DHT22;47726;52.766;6.606;2023-04-06T08:10:33;10.00;94.50
61807;DHT22;47726;52.766;6.606;2023-04-06T08:13:00;10.10;93.80
61807;DHT22;47726;52.766;6.606;2023-04-06T08:15:25;10.20;93.80
61807;DHT22;47726;52.766;6.606;2023-04-06T08:17:51;10.30;93.70
61807;DHT22;47726;52.766;6.606;2023-04-06T08:20:17;10.50;93.60
61807;DHT22;47726;52.766;6.606;2023-04-06T08:22:43;10.60;93.90
61807;DHT22;47726;52.766;6.606;2023-04-06T08:25:08;10.80;93.60
61807;DHT22;47726;52.766;6.606;2023-04-06T08:27:34;11.00;92.90
61807;DHT22;47726;52.766;6.606;2023-04-06T08:30:00;11.00;92.60
61807;DHT22;47726;52.766;6.606;2023-04-06T08:32:25;11.10;92.70
61807;DHT22;47726;52.766;6.606;2023-04-06T08:34:54;11.30;92.40
61807;DHT22;47726;52.766;6.606;2023-04-06T08:37:21;11.30;92.20
61807;DHT22;47726;52.766;6.606;2023-04-06T08:39:46;11.30;92.10
61807;DHT22;47726;52.766;6.606;2023-04-06T08:42:21;11.30;91.20
61807;DHT22;47726;52.766;6.606;2023-04-06T08:44:48;11.30;91.20
61807;DHT22;47726;52.766;6.606;2023-04-06T08:47:15;11.20;90.90
61807;DHT22;47726;52.766;6.606;2023-04-06T08:49:42;11.20;91.30
61807;DHT22;47726;52.766;6.606;2023-04-06T08:52:10;11.20;91.20
61807;DHT22;47726;52.766;6.606;2023-04-06T08:54:36;11.20;91.20
61807;DHT22;47726;52.766;6.606;2023-04-06T08:57:03;11.10;90.80
61807;DHT22;47726;52.766;6.606;2023-04-06T08:59:30;11.10;90.80
61807;DHT22;47726;52.766;6.606;2023-04-06T09:01:56;11.00;90.60
61807;DHT22;47726;52.766;6.606;2023-04-06T09:04:22;11.00;90.60
61807;DHT22;47726;52.766;6.606;2023-04-06T09:06:48;11.00;90.70
61807;DHT22;47726;52.766;6.606;2023-04-06T09:09:15;10.90;90.30
61807;DHT22;47726;52.766;6.606;2023-04-06T09:11:45;10.90;90.30
61807;DHT22;47726;52.766;6.606;2023-04-06T09:14:11;11.00;90.70
61807;DHT22;47726;52.766;6.606;2023-04-06T09:16:41;11.00;90.80
61807;DHT22;47726;52.766;6.606;2023-04-06T09:19:07;10.90;90.20
61807;DHT22;47726;52.766;6.606;2023-04-06T09:21:33;10.90;90.40
61807;DHT22;47726;52.766;6.606;2023-04-06T09:24:02;10.90;90.90
61807;DHT22;47726;52.766;6.606;2023-04-06T09:26:28;10.90;90.80
61807;DHT22;47726;52.766;6.606;2023-04-06T09:28:55;10.90;90.60
61807;DHT22;47726;52.766;6.606;2023-04-06T09:31:25;10.90;90.90
61807;DHT22;47726;52.766;6.606;2023-04-06T09:33:52;10.90;90.90
61807;DHT22;47726;52.766;6.606;2023-04-06T09:36:19;11.00;91.00
61807;DHT22;47726;52.766;6.606;2023-04-06T09:39:00;10.90;90.50
61807;DHT22;47726;52.766;6.606;2023-04-06T09:41:33;10.90;90.70
61807;DHT22;47726;52.766;6.606;2023-04-06T09:44:06;11.00;90.70
61807;DHT22;47726;52.766;6.606;2023-04-06T09:46:34;11.00;90.40
61807;DHT22;47726;52.766;6.606;2023-04-06T09:49:02;11.10;90.60
61807;DHT22;47726;52.766;6.606;2023-04-06T09:51:31;11.10;90.70
61807;DHT22;47726;52.766;6.606;2023-04-06T09:53:57;11.10;90.50
61807;DHT22;47726;52.766;6.606;2023-04-06T09:56:28;11.20;89.50
61807;DHT22;47726;52.766;6.606;2023-04-06T09:59:01;11.20;88.60
61807;DHT22;47726;52.766;6.606;2023-04-06T10:01:29;11.20;87.80
61807;DHT22;47726;52.766;6.606;2023-04-06T10:06:40;11.40;86.60
61807;DHT22;47726;52.766;6.606;2023-04-06T10:09:07;11.60;86.40
61807;DHT22;47726;52.766;6.606;2023-04-06T10:11:34;11.70;86.20
61807;DHT22;47726;52.766;6.606;2023-04-06T10:14:00;11.90;85.10
61807;DHT22;47726;52.766;6.606;2023-04-06T10:16:26;12.10;85.10
61807;DHT22;47726;52.766;6.606;2023-04-06T10:18:58;12.20;84.90
61807;DHT22;47726;52.766;6.606;2023-04-06T10:21:25;12.30;83.50
61807;DHT22;47726;52.766;6.606;2023-04-06T10:23:57;12.40;83.50
61807;DHT22;47726;52.766;6.606;2023-04-06T10:26:23;12.60;83.60
61807;DHT22;47726;52.766;6.606;2023-04-06T10:28:49;12.60;82.60
61807;DHT22;47726;52.766;6.606;2023-04-06T10:31:27;12.70;82.10
61807;DHT22;47726;52.766;6.606;2023-04-06T10:33:56;12.80;82.00
61807;DHT22;47726;52.766;6.606;2023-04-06T10:36:32;12.80;81.20
61807;DHT22;47726;52.766;6.606;2023-04-06T10:38:59;12.90;80.50
61807;DHT22;47726;52.766;6.606;2023-04-06T10:41:36;12.90;80.50
61807;DHT22;47726;52.766;6.606;2023-04-06T10:44:05;13.00;80.40
61807;DHT22;47726;52.766;6.606;2023-04-06T10:46:33;13.00;80.20
61807;DHT22;47726;52.766;6.606;2023-04-06T10:49:10;13.10;80.00
61807;DHT22;47726;52.766;6.606;2023-04-06T10:51:38;13.00;78.80
61807;DHT22;47726;52.766;6.606;2023-04-06T10:54:03;13.10;79.40
61807;DHT22;47726;52.766;6.606;2023-04-06T10:56:31;13.10;78.70
61807;DHT22;47726;52.766;6.606;2023-04-06T10:58:59;13.10;78.60
61807;DHT22;47726;52.766;6.606;2023-04-06T11:01:25;13.10;78.10
61807;DHT22;47726;52.766;6.606;2023-04-06T11:03:55;13.10;77.20
61807;DHT22;47726;52.766;6.606;2023-04-06T11:06:28;13.10;76.90
61807;DHT22;47726;52.766;6.606;2023-04-06T11:08:55;13.10;77.80
61807;DHT22;47726;52.766;6.606;2023-04-06T11:11:22;13.10;76.20
61807;DHT22;47726;52.766;6.606;2023-04-06T11:13:53;13.10;76.50
61807;DHT22;47726;52.766;6.606;2023-04-06T11:16:24;13.00;74.20
61807;DHT22;47726;52.766;6.606;2023-04-06T11:21:39;13.00;74.60
61807;DHT22;47726;52.766;6.606;2023-04-06T11:26:45;12.90;73.60
61807;DHT22;47726;52.766;6.606;2023-04-06T11:29:13;12.90;73.60
61807;DHT22;47726;52.766;6.606;2023-04-06T11:31:44;12.80;72.90
61807;DHT22;47726;52.766;6.606;2023-04-06T11:34:12;12.90;73.40
61807;DHT22;47726;52.766;6.606;2023-04-06T11:36:40;12.80;72.90
61807;DHT22;47726;52.766;6.606;2023-04-06T11:39:07;12.80;73.00
61807;DHT22;47726;52.766;6.606;2023-04-06T11:41:32;12.80;72.70
61807;DHT22;47726;52.766;6.606;2023-04-06T11:44:01;12.80;72.40
61807;DHT22;47726;52.766;6.606;2023-04-06T11:46:27;12.70;72.40
61807;DHT22;47726;52.766;6.606;2023-04-06T11:49:01;12.70;72.50
61807;DHT22;47726;52.766;6.606;2023-04-06T11:51:27;12.80;72.40
61807;DHT22;47726;52.766;6.606;2023-04-06T11:53:53;12.80;72.70
61807;DHT22;47726;52.766;6.606;2023-04-06T11:56:32;12.80;73.00
61807;DHT22;47726;52.766;6.606;2023-04-06T11:58:58;12.90;72.10
61807;DHT22;47726;52.766;6.606;2023-04-06T12:01:27;13.00;72.00
61807;DHT22;47726;52.766;6.606;2023-04-06T12:03:52;13.00;71.90
61807;DHT22;47726;52.766;6.606;2023-04-06T12:06:18;13.10;70.80
61807;DHT22;47726;52.766;6.606;2023-04-06T12:08:44;13.20;71.70
61807;DHT22;47726;52.766;6.606;2023-04-06T12:11:10;13.30;71.20
61807;DHT22;47726;52.766;6.606;2023-04-06T12:13:36;13.30;70.70
61807;DHT22;47726;52.766;6.606;2023-04-06T12:16:02;13.30;69.30
61807;DHT22;47726;52.766;6.606;2023-04-06T12:18:28;13.30;70.10
61807;DHT22;47726;52.766;6.606;2023-04-06T12:20:53;13.30;70.40
61807;DHT22;47726;52.766;6.606;2023-04-06T12:23:19;13.30;70.20
61807;DHT22;47726;52.766;6.606;2023-04-06T12:25:45;13.40;70.50
61807;DHT22;47726;52.766;6.606;2023-04-06T12:28:11;13.30;69.50
61807;DHT22;47726;52.766;6.606;2023-04-06T12:30:37;13.30;69.30
61807;DHT22;47726;52.766;6.606;2023-04-06T12:33:02;13.30;68.70
61807;DHT22;47726;52.766;6.606;2023-04-06T12:35:28;13.30;68.40
61807;DHT22;47726;52.766;6.606;2023-04-06T12:37:54;13.30;68.20
61807;DHT22;47726;52.766;6.606;2023-04-06T12:40:20;13.30;69.40
61807;DHT22;47726;52.766;6.606;2023-04-06T12:42:45;13.30;68.90
61807;DHT22;47726;52.766;6.606;2023-04-06T12:45:12;13.30;69.60
61807;DHT22;47726;52.766;6.606;2023-04-06T12:47:38;13.30;69.60
61807;DHT22;47726;52.766;6.606;2023-04-06T12:50:04;13.30;69.20
61807;DHT22;47726;52.766;6.606;2023-04-06T12:52:31;13.30;69.30
61807;DHT22;47726;52.766;6.606;2023-04-06T12:54:57;13.40;70.10
61807;DHT22;47726;52.766;6.606;2023-04-06T12:57:24;13.30;70.20
61807;DHT22;47726;52.766;6.606;2023-04-06T12:59:51;13.40;70.30
61807;DHT22;47726;52.766;6.606;2023-04-06T13:02:16;13.40;70.60
61807;DHT22;47726;52.766;6.606;2023-04-06T13:04:42;13.40;70.70
61807;DHT22;47726;52.766;6.606;2023-04-06T13:07:08;13.40;70.30
61807;DHT22;47726;52.766;6.606;2023-04-06T13:09:33;13.40;70.90
61807;DHT22;47726;52.766;6.606;2023-04-06T13:11:59;13.40;70.80
61807;DHT22;47726;52.766;6.606;2023-04-06T13:14:26;13.40;70.80
61807;DHT22;47726;52.766;6.606;2023-04-06T13:16:51;13.40;71.30
61807;DHT22;47726;52.766;6.606;2023-04-06T13:19:17;13.30;71.80
61807;DHT22;47726;52.766;6.606;2023-04-06T13:21:43;13.30;72.20
61807;DHT22;47726;52.766;6.606;2023-04-06T13:24:09;13.30;72.10
61807;DHT22;47726;52.766;6.606;2023-04-06T13:26:35;13.30;71.70
61807;DHT22;47726;52.766;6.606;2023-04-06T13:29:01;13.20;72.20
61807;DHT22;47726;52.766;6.606;2023-04-06T13:31:28;13.20;71.90
61807;DHT22;47726;52.766;6.606;2023-04-06T13:33:53;13.20;72.80
61807;DHT22;47726;52.766;6.606;2023-04-06T13:36:19;13.20;73.30
61807;DHT22;47726;52.766;6.606;2023-04-06T13:38:45;13.10;72.60
61807;DHT22;47726;52.766;6.606;2023-04-06T13:41:20;13.00;73.00
61807;DHT22;47726;52.766;6.606;2023-04-06T13:43:47;12.90;73.20
61807;DHT22;47726;52.766;6.606;2023-04-06T13:46:12;12.80;74.00
61807;DHT22;47726;52.766;6.606;2023-04-06T13:48:38;12.80;74.90
61807;DHT22;47726;52.766;6.606;2023-04-06T13:51:13;12.70;76.70
61807;DHT22;47726;52.766;6.606;2023-04-06T13:53:39;12.60;76.30
61807;DHT22;47726;52.766;6.606;2023-04-06T13:56:06;12.60;77.80
61807;DHT22;47726;52.766;6.606;2023-04-06T13:58:32;12.60;77.30
61807;DHT22;47726;52.766;6.606;2023-04-06T14:01:07;12.50;77.20
61807;DHT22;47726;52.766;6.606;2023-04-06T14:03:35;12.60;77.80
61807;DHT22;47726;52.766;6.606;2023-04-06T14:06:08;12.50;78.00
61807;DHT22;47726;52.766;6.606;2023-04-06T14:08:34;12.50;78.30
61807;DHT22;47726;52.766;6.606;2023-04-06T14:11:00;12.50;78.20
61807;DHT22;47726;52.766;6.606;2023-04-06T14:13:25;12.50;78.30
61807;DHT22;47726;52.766;6.606;2023-04-06T14:15:54;12.50;78.20
61807;DHT22;47726;52.766;6.606;2023-04-06T14:18:21;12.50;78.40
61807;DHT22;47726;52.766;6.606;2023-04-06T14:20:57;12.60;78.70
61807;DHT22;47726;52.766;6.606;2023-04-06T14:23:23;12.60;78.70
61807;DHT22;47726;52.766;6.606;2023-04-06T14:25:51;12.50;78.70
61807;DHT22;47726;52.766;6.606;2023-04-06T14:28:16;12.50;79.20
61807;DHT22;47726;52.766;6.606;2023-04-06T14:30:43;12.50;78.00
61807;DHT22;47726;52.766;6.606;2023-04-06T14:33:09;12.50;78.80
61807;DHT22;47726;52.766;6.606;2023-04-06T14:35:38;12.50;78.60
61807;DHT22;47726;52.766;6.606;2023-04-06T14:38:03;12.50;78.70
61807;DHT22;47726;52.766;6.606;2023-04-06T14:40:29;12.50;79.70
61807;DHT22;47726;52.766;6.606;2023-04-06T14:42:55;12.50;80.40
61807;DHT22;47726;52.766;6.606;2023-04-06T14:45:21;12.40;80.80
61807;DHT22;47726;52.766;6.606;2023-04-06T14:47:48;12.40;81.40
61807;DHT22;47726;52.766;6.606;2023-04-06T14:50:13;12.30;81.40
61807;DHT22;47726;52.766;6.606;2023-04-06T14:52:39;12.30;81.70
61807;DHT22;47726;52.766;6.606;2023-04-06T14:55:05;12.30;82.20
61807;DHT22;47726;52.766;6.606;2023-04-06T14:57:31;12.20;83.10
61807;DHT22;47726;52.766;6.606;2023-04-06T14:59:57;12.10;85.60
61807;DHT22;47726;52.766;6.606;2023-04-06T15:02:23;12.10;87.00
61807;DHT22;47726;52.766;6.606;2023-04-06T15:04:48;12.00;88.40
61807;DHT22;47726;52.766;6.606;2023-04-06T15:07:14;12.00;90.00
61807;DHT22;47726;52.766;6.606;2023-04-06T15:09:40;11.90;90.80
61807;DHT22;47726;52.766;6.606;2023-04-06T15:12:05;11.80;91.90
61807;DHT22;47726;52.766;6.606;2023-04-06T15:14:31;11.70;93.50
61807;DHT22;47726;52.766;6.606;2023-04-06T15:16:56;11.70;94.60
61807;DHT22;47726;52.766;6.606;2023-04-06T15:19:22;11.60;96.30
61807;DHT22;47726;52.766;6.606;2023-04-06T15:21:48;11.50;96.60
61807;DHT22;47726;52.766;6.606;2023-04-06T15:24:13;11.40;98.10
61807;DHT22;47726;52.766;6.606;2023-04-06T15:26:39;11.40;98.30
61807;DHT22;47726;52.766;6.606;2023-04-06T15:29:04;11.40;99.20
61807;DHT22;47726;52.766;6.606;2023-04-06T15:31:30;11.30;99.90
61807;DHT22;47726;52.766;6.606;2023-04-06T15:33:58;11.30;99.90
61807;DHT22;47726;52.766;6.606;2023-04-06T15:38:54;11.10;99.90
61807;DHT22;47726;52.766;6.606;2023-04-06T15:41:21;11.10;99.90
61807;DHT22;47726;52.766;6.606;2023-04-06T15:43:47;11.10;99.90
61807;DHT22;47726;52.766;6.606;2023-04-06T15:46:13;11.10;99.90